Butgenbach, Belgium
Current Conditions -  °F | °C
As of 11:25 PM on Tuesday 25 Nov 2014 (Local Time) from EBLB Reporting Station
Broken Clouds Broken Clouds  
Wind Chill: 32°   Ceiling: 300
Heat Index: 37°   Visibility: 4mi
Dew Point: 36°   Wind: 7mph
Humidity: 93%   Direction: 120°ESE
Pressure: 30.06"   Gusts: NA
Location:  50.43°N, 6.21°E
Report Text: EBLB 252225Z AUTO 12006KT 6000 BKN003/// 03/02 Q1018 YLO
Loading
Personal Weather Stations






























Interactive Weather Map New forecast layout! Learn more

10-Day Weather Forecast

Advertisements
Track Severe Weather on mobile